createdAt,value
2023-02-13T00:00:48.688Z,102508.59
2023-02-13T00:03:17.453Z,102515.28
2023-02-13T00:05:45.017Z,102507.38
2023-02-13T00:08:12.381Z,102509.38
2023-02-13T00:10:39.780Z,102511.19
2023-02-13T00:13:07.173Z,102509.38
2023-02-13T00:15:34.670Z,102510.13
2023-02-13T00:18:03.400Z,102502.31
2023-02-13T00:20:32.291Z,102508.63
2023-02-13T00:23:00.276Z,102497.22
2023-02-13T00:25:28.255Z,102492.75
2023-02-13T00:27:55.535Z,102494.59
2023-02-13T00:30:23.713Z,102487.47
2023-02-13T00:32:51.086Z,102500.94
2023-02-13T00:35:18.729Z,102489.25
2023-02-13T00:37:47.426Z,102489.00
2023-02-13T00:40:15.202Z,102491.94
2023-02-13T00:42:42.587Z,102491.13
2023-02-13T00:45:10.607Z,102501.56
2023-02-13T00:47:37.866Z,102492.00
2023-02-13T00:50:06.231Z,102491.16
2023-02-13T00:52:33.655Z,102499.13
2023-02-13T00:55:02.351Z,102495.59
2023-02-13T00:57:31.748Z,102497.00
2023-02-13T00:59:59.425Z,102490.25
2023-02-13T01:02:26.893Z,102493.97
2023-02-13T01:04:54.315Z,102498.91
2023-02-13T01:07:21.739Z,102497.41
2023-02-13T01:09:49.111Z,102501.13
2023-02-13T01:12:17.817Z,102499.38
2023-02-13T01:14:45.190Z,102505.50
2023-02-13T01:17:12.561Z,102497.25
2023-02-13T01:19:41.765Z,102501.56
2023-02-13T01:22:09.293Z,102497.09
2023-02-13T01:24:36.690Z,102492.78
2023-02-13T01:27:04.065Z,102494.41
2023-02-13T01:29:33.196Z,102490.13
2023-02-13T01:32:02.489Z,102496.22
2023-02-13T01:34:30.296Z,102491.00
2023-02-13T01:36:57.669Z,102494.66
2023-02-13T01:39:25.058Z,102488.53
2023-02-13T01:41:52.488Z,102490.28
2023-02-13T01:44:50.585Z,102485.72
2023-02-13T01:47:25.279Z,102476.94
2023-02-13T01:50:00.366Z,102475.25
2023-02-13T01:52:28.109Z,102477.03
2023-02-13T01:54:55.774Z,102477.75
2023-02-13T01:57:26.888Z,102474.13
2023-02-13T02:00:00.700Z,102479.59
2023-02-13T02:02:32.595Z,102479.66
2023-02-13T02:05:00.203Z,102476.00
2023-02-13T02:07:29.918Z,102480.25
2023-02-13T02:10:01.649Z,102480.91
2023-02-13T02:12:37.133Z,102472.41
2023-02-13T02:15:07.081Z,102474.22
2023-02-13T02:17:34.713Z,102469.75
2023-02-13T02:20:15.130Z,102473.41
2023-02-13T02:23:15.375Z,102465.41
2023-02-13T02:26:10.418Z,102456.56
2023-02-13T02:28:57.659Z,102460.16
2023-02-13T02:31:54.495Z,102465.50
2023-02-13T02:34:29.442Z,102461.97
2023-02-13T02:37:14.367Z,102464.56
2023-02-13T02:39:53.653Z,102468.19
2023-02-13T02:42:31.593Z,102472.31
2023-02-13T02:45:06.548Z,102474.09
2023-02-13T02:48:03.017Z,102470.59
2023-02-13T02:50:45.301Z,102469.03
2023-02-13T02:53:27.627Z,102472.47
2023-02-13T02:56:00.052Z,102473.16
2023-02-13T02:58:51.719Z,102468.09
2023-02-13T03:01:40.026Z,102473.16
2023-02-13T03:04:34.739Z,102476.94
2023-02-13T03:07:06.405Z,102469.91
2023-02-13T03:09:58.622Z,102476.06
2023-02-13T03:12:48.557Z,102471.78
2023-02-13T03:15:15.950Z,102480.66
2023-02-13T03:18:01.890Z,102481.59
2023-02-13T03:20:58.770Z,102475.41
2023-02-13T03:23:40.547Z,102468.34
2023-02-13T03:26:22.866Z,102476.94
2023-02-13T03:29:15.128Z,102478.66
2023-02-13T03:31:53.975Z,102478.84
2023-02-13T03:34:24.091Z,102477.03
2023-02-13T03:37:25.235Z,102479.78
2023-02-13T03:40:01.399Z,102484.28
2023-02-13T03:42:36.338Z,102478.94
2023-02-13T03:45:23.978Z,102477.97
2023-02-13T03:47:55.079Z,102473.56
2023-02-13T03:50:22.435Z,102483.06
2023-02-13T03:52:54.635Z,102477.06
2023-02-13T03:55:42.618Z,102478.75
2023-02-13T03:58:32.279Z,102477.91
2023-02-13T04:01:04.935Z,102485.03
2023-02-13T04:03:39.060Z,102475.00
2023-02-13T04:06:12.144Z,102479.53
2023-02-13T04:08:41.045Z,102475.22
2023-02-13T04:11:14.847Z,102479.63
2023-02-13T04:13:47.701Z,102478.84
2023-02-13T04:16:20.945Z,102484.75
2023-02-13T04:18:50.508Z,102480.47
2023-02-13T04:21:17.925Z,102482.28
2023-02-13T04:23:46.606Z,102482.25
2023-02-13T04:26:18.287Z,102479.53
2023-02-13T04:28:45.975Z,102476.06
2023-02-13T04:31:13.676Z,102476.00
2023-02-13T04:33:45.090Z,102478.56
2023-02-13T04:36:12.521Z,102477.66
2023-02-13T04:38:39.892Z,102477.66
2023-02-13T04:41:08.632Z,102474.88
2023-02-13T04:43:36.195Z,102475.72
2023-02-13T04:46:04.269Z,102473.06
2023-02-13T04:48:31.852Z,102479.41
2023-02-13T04:50:59.502Z,102481.19
2023-02-13T04:53:27.024Z,102480.19
2023-02-13T04:55:54.637Z,102478.50
2023-02-13T04:58:23.320Z,102475.81
2023-02-13T05:00:50.686Z,102475.84
2023-02-13T05:03:18.147Z,102472.47
2023-02-13T05:05:45.739Z,102475.81
2023-02-13T05:08:13.170Z,102470.75
2023-02-13T05:10:40.543Z,102475.94
2023-02-13T05:13:07.929Z,102471.59
2023-02-13T05:15:36.960Z,102472.41
2023-02-13T05:18:04.481Z,102469.81
2023-02-13T05:20:31.847Z,102474.97
2023-02-13T05:23:17.758Z,102481.22
2023-02-13T05:25:45.120Z,102474.97
2023-02-13T05:28:26.537Z,102485.81
2023-02-13T05:30:55.442Z,102475.22
2023-02-13T05:33:23.109Z,102482.03
2023-02-13T05:35:50.495Z,102480.41
2023-02-13T05:38:17.906Z,102484.69
2023-02-13T05:40:45.417Z,102476.69
2023-02-13T05:43:12.819Z,102471.47
2023-02-13T05:45:40.157Z,102484.75
2023-02-13T05:48:08.874Z,102468.69
2023-02-13T05:50:36.661Z,102477.84
2023-02-13T05:53:04.036Z,102474.19
2023-02-13T05:55:31.418Z,102476.09
2023-02-13T05:57:59.209Z,102478.81
2023-02-13T06:00:26.639Z,102473.66
2023-02-13T06:02:54.058Z,102474.47
2023-02-13T06:05:22.758Z,102478.91
2023-02-13T06:07:50.122Z,102485.75
2023-02-13T06:10:17.717Z,102484.09
2023-02-13T06:12:45.081Z,102476.88
2023-02-13T06:15:12.472Z,102479.59
2023-02-13T06:17:39.867Z,102486.59
2023-02-13T06:20:08.758Z,102495.41
2023-02-13T06:22:37.469Z,102496.47
2023-02-13T06:25:05.827Z,102493.75
2023-02-13T06:27:33.245Z,102492.94
2023-02-13T06:30:00.626Z,102490.28
2023-02-13T06:32:28.021Z,102502.59
2023-02-13T06:34:55.377Z,102500.75
2023-02-13T06:37:22.864Z,102502.59
2023-02-13T06:39:51.617Z,102499.03
2023-02-13T06:42:19.378Z,102506.00
2023-02-13T06:44:46.766Z,102508.78
2023-02-13T06:47:14.197Z,102507.75
2023-02-13T06:49:41.585Z,102511.34
2023-02-13T06:52:09.093Z,102517.88
2023-02-13T06:54:46.840Z,102515.94
2023-02-13T06:57:17.069Z,102523.91
2023-02-13T06:59:44.580Z,102529.28
2023-02-13T07:02:12.102Z,102523.84
2023-02-13T07:04:39.743Z,102524.63
2023-02-13T07:07:07.341Z,102527.44
2023-02-13T07:09:34.799Z,102529.25
2023-02-13T07:12:04.369Z,102536.41
2023-02-13T07:14:33.085Z,102533.53
2023-02-13T07:17:00.537Z,102534.41
2023-02-13T07:19:27.920Z,102517.38
2023-02-13T07:21:55.311Z,102529.69
2023-02-13T07:24:22.722Z,102528.13
2023-02-13T07:26:50.091Z,102530.13
2023-02-13T07:29:17.483Z,102535.34
2023-02-13T07:31:46.203Z,102531.84
2023-02-13T07:34:13.604Z,102532.78
2023-02-13T07:36:40.958Z,102534.66
2023-02-13T07:39:08.624Z,102526.28
2023-02-13T07:41:36.032Z,102526.34
2023-02-13T07:44:03.534Z,102523.56
2023-02-13T07:46:30.965Z,102532.75
2023-02-13T07:48:59.693Z,102527.25
2023-02-13T07:51:29.026Z,102528.13
2023-02-13T07:53:57.685Z,102533.41
2023-02-13T07:56:25.299Z,102528.94
2023-02-13T07:58:52.669Z,102530.72
2023-02-13T08:01:20.452Z,102541.59
2023-02-13T08:03:50.712Z,102532.69
2023-02-13T08:06:20.183Z,102536.06
2023-02-13T08:08:47.905Z,102537.03
2023-02-13T08:11:42.909Z,102538.38
2023-02-13T08:14:10.352Z,102543.78
2023-02-13T08:16:37.770Z,102543.78
2023-02-13T08:19:05.191Z,102550.69
2023-02-13T08:21:35.179Z,102550.06
2023-02-13T08:24:02.555Z,102550.06
2023-02-13T08:26:31.868Z,102548.25
2023-02-13T08:28:59.719Z,102541.91
2023-02-13T08:31:27.794Z,102545.44
2023-02-13T08:33:56.853Z,102548.00
2023-02-13T08:36:24.738Z,102552.31
2023-02-13T08:38:53.492Z,102551.72
2023-02-13T08:41:22.102Z,102552.31
2023-02-13T08:43:49.798Z,102551.66
2023-02-13T08:46:17.581Z,102558.59
2023-02-13T08:48:45.213Z,102557.91
2023-02-13T08:51:14.750Z,102553.22
2023-02-13T08:53:42.838Z,102553.34
2023-02-13T08:56:11.849Z,102554.38
2023-02-13T08:58:39.366Z,102552.41
2023-02-13T09:01:07.904Z,102546.88
2023-02-13T09:03:35.954Z,102550.13
2023-02-13T09:06:03.993Z,102559.31
2023-02-13T09:08:31.338Z,102561.91
2023-02-13T09:11:01.186Z,102567.16
2023-02-13T09:13:32.934Z,102571.78
2023-02-13T09:16:01.372Z,102580.97
2023-02-13T09:18:29.173Z,102569.16
2023-02-13T09:21:01.594Z,102568.16
2023-02-13T09:23:32.345Z,102563.03
2023-02-13T09:26:00.941Z,102574.16
2023-02-13T09:28:30.723Z,102567.81
2023-02-13T09:30:58.453Z,102562.94
2023-02-13T09:33:26.529Z,102566.31
2023-02-13T09:35:54.013Z,102563.94
2023-02-13T09:38:21.380Z,102564.81
2023-02-13T09:40:53.612Z,102563.72
2023-02-13T09:43:31.733Z,102559.66
2023-02-13T09:46:02.634Z,102563.06
2023-02-13T09:48:32.028Z,102570.81
2023-02-13T09:51:00.353Z,102562.25
2023-02-13T09:53:33.320Z,102571.41
2023-02-13T09:56:10.244Z,102574.88
2023-02-13T09:58:45.582Z,102569.41
2023-02-13T10:01:21.837Z,102579.97
2023-02-13T10:03:58.121Z,102571.66
2023-02-13T10:06:31.604Z,102582.06
2023-02-13T10:09:11.095Z,102581.09
2023-02-13T10:11:54.272Z,102581.09
2023-02-13T10:14:32.772Z,102584.50
2023-02-13T10:17:06.352Z,102580.84
2023-02-13T10:19:38.935Z,102583.81
2023-02-13T10:22:11.282Z,102577.31
2023-02-13T10:24:42.567Z,102576.56
2023-02-13T10:27:20.847Z,102578.28
2023-02-13T10:30:06.752Z,102574.63
2023-02-13T10:32:43.931Z,102563.56
2023-02-13T10:35:21.907Z,102567.88
2023-02-13T10:37:52.643Z,102563.56
2023-02-13T10:40:20.759Z,102562.34
2023-02-13T10:42:55.662Z,102556.44
2023-02-13T10:45:40.153Z,102547.41
2023-02-13T10:48:19.138Z,102541.47
2023-02-13T10:50:57.151Z,102538.38
2023-02-13T10:53:41.359Z,102538.88
2023-02-13T10:56:24.534Z,102535.34
2023-02-13T10:59:02.481Z,102539.94
2023-02-13T11:01:34.482Z,102529.16
2023-02-13T11:04:07.148Z,102529.56
2023-02-13T11:06:37.739Z,102525.63
2023-02-13T11:09:07.056Z,102533.91
2023-02-13T11:11:36.977Z,102535.03
2023-02-13T11:14:10.837Z,102527.03
2023-02-13T11:16:49.403Z,102522.41
2023-02-13T11:19:23.059Z,102523.13
2023-02-13T11:21:55.708Z,102527.94
2023-02-13T11:24:25.115Z,102525.44
2023-02-13T11:26:55.628Z,102529.28
2023-02-13T11:29:27.492Z,102523.75
2023-02-13T11:32:20.436Z,102532.22
2023-02-13T11:34:50.577Z,102521.84
2023-02-13T11:37:27.924Z,102520.53
2023-02-13T11:39:57.721Z,102524.16
2023-02-13T11:42:31.534Z,102520.22
2023-02-13T11:45:05.014Z,102522.31
2023-02-13T11:47:38.057Z,102518.41
2023-02-13T11:50:07.302Z,102509.00
2023-02-13T11:52:37.055Z,102508.03
2023-02-13T11:55:07.572Z,102510.59
2023-02-13T11:57:37.534Z,102508.75
2023-02-13T12:00:30.819Z,102502.75
2023-02-13T12:02:59.725Z,102502.19
2023-02-13T12:05:28.830Z,102495.63
2023-02-13T12:08:00.631Z,102506.59
2023-02-13T12:10:29.804Z,102485.25
2023-02-13T12:13:00.144Z,102489.09
2023-02-13T12:15:30.988Z,102489.09
2023-02-13T12:18:07.634Z,102482.75
2023-02-13T12:20:43.600Z,102482.59
2023-02-13T12:23:23.520Z,102481.38
2023-02-13T12:26:14.658Z,102473.44
2023-02-13T12:28:57.881Z,102473.88
2023-02-13T12:31:37.697Z,102467.47
2023-02-13T12:34:31.944Z,102472.28
2023-02-13T12:37:10.634Z,102466.97
2023-02-13T12:39:42.313Z,102458.81
2023-02-13T12:42:23.054Z,102464.88
2023-02-13T12:45:12.635Z,102456.09
2023-02-13T12:47:53.505Z,102465.47
2023-02-13T12:50:39.341Z,102459.06
2023-02-13T12:53:24.120Z,102456.16
2023-02-13T12:56:05.808Z,102460.25
2023-02-13T12:58:48.003Z,102458.97
2023-02-13T13:01:25.658Z,102457.69
2023-02-13T13:04:08.767Z,102463.00
2023-02-13T13:06:58.323Z,102454.13
2023-02-13T13:09:57.539Z,102452.50
2023-02-13T13:12:34.761Z,102448.56
2023-02-13T13:15:09.491Z,102451.63
2023-02-13T13:17:48.946Z,102449.03
2023-02-13T13:20:35.634Z,102444.59
2023-02-13T13:23:09.904Z,102444.25
2023-02-13T13:25:44.470Z,102453.31
2023-02-13T13:28:16.797Z,102455.06
2023-02-13T13:30:44.937Z,102451.38
2023-02-13T13:33:17.043Z,102456.28
2023-02-13T13:35:54.175Z,102457.19
2023-02-13T13:38:34.255Z,102453.72
2023-02-13T13:41:09.473Z,102452.97
2023-02-13T13:43:45.268Z,102463.81
2023-02-13T13:46:18.774Z,102456.72
2023-02-13T13:48:59.887Z,102459.75
2023-02-13T13:51:27.577Z,102459.88
2023-02-13T13:54:35.290Z,102460.84
2023-02-13T13:57:11.507Z,102456.91
2023-02-13T14:00:28.012Z,102462.91
2023-02-13T14:03:23.348Z,102462.81
2023-02-13T14:06:04.084Z,102457.66
2023-02-13T14:09:07.065Z,102453.22
2023-02-13T14:11:47.229Z,102464.19
2023-02-13T14:14:52.463Z,102473.34
2023-02-13T14:17:54.588Z,102476.28
2023-02-13T14:20:29.679Z,102469.53
2023-02-13T14:22:57.735Z,102468.91
2023-02-13T14:25:26.016Z,102469.50
2023-02-13T14:28:00.554Z,102460.69
2023-02-13T14:30:30.780Z,102459.53
2023-02-13T14:33:01.390Z,102453.94
2023-02-13T14:35:32.124Z,102457.44
2023-02-13T14:38:02.315Z,102465.06
2023-02-13T14:40:34.358Z,102456.09
2023-02-13T14:43:22.909Z,102460.00
2023-02-13T14:45:54.524Z,102461.56
2023-02-13T14:48:26.371Z,102443.41
2023-02-13T14:50:56.910Z,102442.50
2023-02-13T14:53:28.046Z,102440.06
2023-02-13T14:55:59.960Z,102435.63
2023-02-13T14:58:32.420Z,102435.78
2023-02-13T15:01:07.665Z,102448.84
2023-02-13T15:03:42.050Z,102431.84
2023-02-13T15:06:15.226Z,102425.47
2023-02-13T15:08:49.065Z,102421.69
2023-02-13T15:11:38.254Z,102423.50
2023-02-13T15:14:25.637Z,102418.69
2023-02-13T15:16:56.759Z,102417.44
2023-02-13T15:19:25.622Z,102416.03
2023-02-13T15:21:56.263Z,102419.69
2023-02-13T15:24:24.932Z,102420.97
2023-02-13T15:27:02.430Z,102406.44
2023-02-13T15:29:44.232Z,102419.31
2023-02-13T15:32:20.091Z,102411.25
2023-02-13T15:34:48.203Z,102404.09
2023-02-13T15:37:21.443Z,102400.19
2023-02-13T15:39:48.858Z,102393.09
2023-02-13T15:42:16.360Z,102389.44
2023-02-13T15:44:48.242Z,102396.00
2023-02-13T15:47:19.037Z,102389.78
2023-02-13T15:49:50.279Z,102407.84
2023-02-13T15:52:21.149Z,102410.34
2023-02-13T15:54:50.707Z,102409.84
2023-02-13T15:57:19.368Z,102422.19
2023-02-13T15:59:48.835Z,102422.59
2023-02-13T16:02:20.983Z,102427.38
2023-02-13T16:04:51.362Z,102423.84
2023-02-13T16:07:19.108Z,102404.34
2023-02-13T16:09:47.213Z,102414.13
2023-02-13T16:12:19.363Z,102420.63
2023-02-13T16:14:54.087Z,102421.28
2023-02-13T16:17:28.812Z,102422.22
2023-02-13T16:20:00.407Z,102417.97
2023-02-13T16:22:35.011Z,102411.69
2023-02-13T16:25:11.237Z,102408.47
2023-02-13T16:27:44.270Z,102404.56
2023-02-13T16:30:29.692Z,102403.78
2023-02-13T16:33:22.664Z,102409.03
2023-02-13T16:35:51.318Z,102414.13
2023-02-13T16:38:27.136Z,102407.06
2023-02-13T16:40:56.065Z,102407.69
2023-02-13T16:43:45.928Z,102412.97
2023-02-13T16:46:20.500Z,102424.66
2023-02-13T16:48:58.952Z,102420.19
2023-02-13T16:51:32.140Z,102416.53
2023-02-13T16:54:01.835Z,102411.41
2023-02-13T16:56:37.259Z,102417.91
2023-02-13T16:59:23.949Z,102409.63
2023-02-13T17:02:15.299Z,102414.13
2023-02-13T17:04:44.705Z,102406.19
2023-02-13T17:07:21.185Z,102406.94
2023-02-13T17:09:54.852Z,102408.56
2023-02-13T17:12:22.899Z,102406.06
2023-02-13T17:14:50.201Z,102407.13
2023-02-13T17:17:20.640Z,102402.53
2023-02-13T17:19:48.986Z,102401.78
2023-02-13T17:22:26.779Z,102398.78
2023-02-13T17:24:54.171Z,102403.53
2023-02-13T17:27:22.834Z,102402.16
2023-02-13T17:29:50.316Z,102393.34
2023-02-13T17:32:22.126Z,102395.69
2023-02-13T17:34:49.985Z,102398.41
2023-02-13T17:40:16.903Z,102393.06
2023-02-13T17:42:45.792Z,102397.63
2023-02-13T17:45:15.926Z,102403.56
2023-02-13T17:47:45.347Z,102407.16
2023-02-13T17:50:14.114Z,102412.78
2023-02-13T17:52:45.557Z,102402.09
2023-02-13T17:55:17.383Z,102395.16
2023-02-13T17:57:45.028Z,102394.09
2023-02-13T18:00:12.998Z,102389.41
2023-02-13T18:02:42.422Z,102391.50
2023-02-13T18:05:12.014Z,102394.94
2023-02-13T18:07:41.384Z,102392.56
2023-02-13T18:10:12.131Z,102402.00
2023-02-13T18:12:40.485Z,102407.34
2023-02-13T18:15:08.646Z,102410.94
2023-02-13T18:17:36.057Z,102422.66
2023-02-13T18:20:03.890Z,102415.59
2023-02-13T18:22:32.582Z,102412.09
2023-02-13T18:25:01.975Z,102418.00
2023-02-13T18:27:29.801Z,102416.97
2023-02-13T18:29:57.910Z,102409.78
2023-02-13T18:32:25.544Z,102402.75
2023-02-13T18:34:52.947Z,102403.53
2023-02-13T18:37:21.014Z,102409.72
2023-02-13T18:39:49.625Z,102409.91
2023-02-13T18:42:18.681Z,102412.59
2023-02-13T18:44:46.061Z,102406.09
2023-02-13T18:47:13.490Z,102400.69
2023-02-13T18:49:40.923Z,102401.13
2023-02-13T18:52:08.465Z,102399.44
2023-02-13T18:54:37.112Z,102382.75
2023-02-13T18:57:06.043Z,102386.25
2023-02-13T18:59:33.422Z,102385.34
2023-02-13T19:02:03.159Z,102383.59
2023-02-13T19:04:32.284Z,102382.91
2023-02-13T19:06:59.667Z,102369.78
2023-02-13T19:09:27.190Z,102370.75
2023-02-13T19:11:54.562Z,102373.25
2023-02-13T19:14:25.158Z,102370.47
2023-02-13T19:16:53.183Z,102368.56
2023-02-13T19:19:20.559Z,102371.97
2023-02-13T19:21:47.921Z,102372.09
2023-02-13T19:24:15.601Z,102380.78
2023-02-13T19:26:43.570Z,102377.44
2023-02-13T19:29:11.278Z,102394.28
2023-02-13T19:31:40.155Z,102394.13
2023-02-13T19:34:07.660Z,102401.94
2023-02-13T19:36:35.100Z,102410.25
2023-02-13T19:39:04.991Z,102421.63
2023-02-13T19:41:33.442Z,102420.97
2023-02-13T19:44:01.137Z,102426.88
2023-02-13T19:46:30.569Z,102419.16
2023-02-13T19:48:59.807Z,102421.53
2023-02-13T19:51:28.474Z,102429.41
2023-02-13T19:53:57.380Z,102431.22
2023-02-13T19:56:27.209Z,102426.84
2023-02-13T19:58:54.724Z,102419.66
2023-02-13T20:01:24.246Z,102419.63
2023-02-13T20:03:52.132Z,102422.41
2023-02-13T20:06:22.642Z,102415.88
2023-02-13T20:08:50.932Z,102405.53
2023-02-13T20:11:19.849Z,102416.47
2023-02-13T20:13:47.579Z,102416.22
2023-02-13T20:16:17.312Z,102419.16
2023-02-13T20:18:44.956Z,102416.22
2023-02-13T20:21:15.456Z,102422.50
2023-02-13T20:23:49.094Z,102423.34
2023-02-13T20:26:17.268Z,102420.56
2023-02-13T20:28:46.376Z,102433.16
2023-02-13T20:31:16.215Z,102428.69
2023-02-13T20:33:44.402Z,102426.97
2023-02-13T20:36:12.455Z,102428.00
2023-02-13T20:38:39.729Z,102430.13
2023-02-13T20:41:11.992Z,102427.13
2023-02-13T20:43:39.474Z,102421.78
2023-02-13T20:46:07.466Z,102434.22
2023-02-13T20:48:35.640Z,102429.72
2023-02-13T20:51:03.698Z,102426.19
2023-02-13T20:53:31.660Z,102434.22
2023-02-13T20:56:02.138Z,102436.84
2023-02-13T20:58:31.402Z,102436.78
2023-02-13T21:00:59.038Z,102434.13
2023-02-13T21:03:26.947Z,102441.25
2023-02-13T21:05:54.329Z,102439.53
2023-02-13T21:08:21.593Z,102443.16
2023-02-13T21:10:48.844Z,102441.25
2023-02-13T21:13:16.117Z,102443.94
2023-02-13T21:15:51.455Z,102431.44
2023-02-13T21:18:21.042Z,102436.84
2023-02-13T21:20:48.666Z,102436.88
2023-02-13T21:23:15.933Z,102435.97
2023-02-13T21:25:43.340Z,102428.09
2023-02-13T21:28:10.602Z,102434.31
2023-02-13T21:30:38.064Z,102422.75
2023-02-13T21:33:06.774Z,102436.09
2023-02-13T21:35:34.267Z,102432.47
2023-02-13T21:38:01.583Z,102437.81
2023-02-13T21:40:28.874Z,102436.09
2023-02-13T21:42:56.117Z,102431.44
2023-02-13T21:45:23.373Z,102433.13
2023-02-13T21:47:50.631Z,102434.00
2023-02-13T21:50:19.248Z,102438.41
2023-02-13T21:52:46.664Z,102422.41
2023-02-13T21:55:13.975Z,102431.34
2023-02-13T21:57:41.237Z,102430.50
2023-02-13T22:00:10.450Z,102431.66
2023-02-13T22:02:38.498Z,102418.91
2023-02-13T22:05:06.110Z,102430.41
2023-02-13T22:07:55.702Z,102433.22
2023-02-13T22:10:22.957Z,102427.81
2023-02-13T22:12:53.854Z,102427.84
2023-02-13T22:15:21.533Z,102436.84
2023-02-13T22:17:48.785Z,102445.78
2023-02-13T22:20:16.381Z,102433.34
2023-02-13T22:22:45.035Z,102434.97
2023-02-13T22:25:12.306Z,102437.84
2023-02-13T22:27:39.591Z,102449.41
2023-02-13T22:30:07.640Z,102439.66
2023-02-13T22:32:34.969Z,102449.41
2023-02-13T22:35:02.241Z,102444.94
2023-02-13T22:37:29.509Z,102450.22
2023-02-13T22:39:58.115Z,102452.97
2023-02-13T22:42:25.406Z,102461.72
2023-02-13T22:44:52.667Z,102460.88
2023-02-13T22:47:19.938Z,102467.22
2023-02-13T22:49:47.203Z,102461.91
2023-02-13T22:52:14.481Z,102468.16
2023-02-13T22:54:41.756Z,102474.47
2023-02-13T22:57:10.664Z,102473.59
2023-02-13T22:59:40.132Z,102472.72
2023-02-13T23:02:07.750Z,102475.31
2023-02-13T23:04:35.044Z,102470.84
2023-02-13T23:07:02.344Z,102474.47
2023-02-13T23:09:29.620Z,102469.13
2023-02-13T23:12:14.702Z,102472.72
2023-02-13T23:14:43.484Z,102477.22
2023-02-13T23:17:28.625Z,102484.66
2023-02-13T23:19:55.892Z,102487.25
2023-02-13T23:22:23.175Z,102482.75
2023-02-13T23:24:50.474Z,102483.81
2023-02-13T23:27:17.748Z,102480.28
2023-02-13T23:29:46.328Z,102482.88
2023-02-13T23:32:13.751Z,102486.31
2023-02-13T23:34:41.116Z,102488.97
2023-02-13T23:37:08.394Z,102478.25
2023-02-13T23:39:35.685Z,102473.84
2023-02-13T23:42:02.964Z,102477.34
2023-02-13T23:44:30.231Z,102470.22
2023-02-13T23:46:58.838Z,102469.63
2023-02-13T23:49:26.094Z,102473.13
2023-02-13T23:51:53.370Z,102461.56
2023-02-13T23:54:21.578Z,102465.06
2023-02-13T23:56:50.066Z,102474.78
2023-02-13T23:59:17.924Z,102462.25
